Time;durP1;ratioP1;P1;durP2;ratioP2;P2;SDS_P1;SDS_P2;PMS_P1;PMS_P2;Temp;Humidity;BMP_temperature;BMP_pressure;BME280_temperature;BME280_humidity;BME280_pressure;Samples;Min_cycle;Max_cycle;Signal;HPM_P1;HPM_P2
2022/11/10 00:00:17;;;;;;;8.75;1.95;;;;;;;;;;5073960;28;20017;-82
2022/11/10 00:02:43;;;;;;;3.60;2.30;;;;;;;;;;5079590;28;20075;-81
2022/11/10 00:05:09;;;;;;;11.15;4.20;;;;;;;;;;5082653;28;20028;-80
2022/11/10 00:07:35;;;;;;;24.50;8.02;;;;;;;;;;5088843;28;20059;-80
2022/11/10 00:10:01;;;;;;;21.10;5.22;;;;;;;;;;5083925;28;20009;-79
2022/11/10 00:12:27;;;;;;;32.35;8.88;;;;;;;;;;5087872;28;20031;-79
2022/11/10 00:17:38;;;;;;;14.07;5.32;;;;;;;;;;5079895;28;20083;-82
2022/11/10 00:20:05;;;;;;;8.95;3.35;;;;;;;;;;5077213;28;20021;-80
2022/11/10 00:22:32;;;;;;;10.23;3.78;;;;;;;;;;5073426;28;20028;-82
2022/11/10 00:24:58;;;;;;;9.95;4.40;;;;;;;;;;5078350;28;20040;-82
2022/11/10 00:27:24;;;;;;;6.78;3.40;;;;;;;;;;5084406;28;20028;-81
2022/11/10 00:29:50;;;;;;;14.50;5.82;;;;;;;;;;5077249;28;20056;-83
2022/11/10 00:32:16;;;;;;;17.17;7.18;;;;;;;;;;5078574;28;21296;-81
2022/11/10 00:34:42;;;;;;;19.20;8.73;;;;;;;;;;5079262;28;20048;-82
2022/11/10 00:37:08;;;;;;;17.25;8.30;;;;;;;;;;5077816;28;20044;-81
2022/11/10 00:39:34;;;;;;;14.73;7.10;;;;;;;;;;5073341;28;20031;-82
2022/11/10 00:42:00;;;;;;;10.18;4.75;;;;;;;;;;5078114;28;20027;-82
2022/11/10 00:44:26;;;;;;;8.27;3.83;;;;;;;;;;5078226;28;20025;-81
2022/11/10 00:46:51;;;;;;;7.80;4.10;;;;;;;;;;5083370;28;20056;-82
2022/11/10 00:49:17;;;;;;;6.00;3.35;;;;;;;;;;5083721;28;20024;-82
2022/11/10 00:51:43;;;;;;;4.00;2.60;;;;;;;;;;5081320;28;20413;-82
2022/11/10 00:54:09;;;;;;;4.68;2.72;;;;;;;;;;5076035;28;20037;-79
2022/11/10 00:56:35;;;;;;;5.40;3.15;;;10.00;99.90;;;;;;5079614;28;20033;-81
2022/11/10 00:59:01;;;;;;;6.30;2.47;;;;;;;;;;5080872;28;20017;-82
2022/11/10 01:01:27;;;;;;;4.20;2.78;;;;;;;;;;5079911;28;20031;-81
2022/11/10 01:03:53;;;;;;;6.22;4.13;;;;;;;;;;5081562;28;20123;-82
2022/11/10 01:06:19;;;;;;;6.18;4.57;;;10.00;99.90;;;;;;5077451;28;20043;-81
2022/11/10 01:08:46;;;;;;;4.78;3.60;;;;;;;;;;5077264;28;20056;-81
2022/11/10 01:11:13;;;;;;;5.57;3.30;;;;;;;;;;5078402;28;20068;-81
2022/11/10 01:13:39;;;;;;;4.78;2.63;;;;;;;;;;5084114;28;20066;-81
2022/11/10 01:16:07;;;;;;;4.45;2.25;;;8.80;99.90;;;;;;5085530;28;20031;-81
2022/11/10 01:18:33;;;;;;;4.85;2.25;;;;;;;;;;5076134;28;20040;-81
2022/11/10 01:20:59;;;;;;;5.90;2.40;;;;;;;;;;5082707;28;20048;-82
2022/11/10 01:23:26;;;;;;;2.95;1.77;;;9.70;99.90;;;;;;5076233;28;20162;-81
2022/11/10 01:25:56;;;;;;;4.10;1.95;;;;;;;;;;5077622;28;20059;-81
2022/11/10 01:28:22;;;;;;;2.38;1.52;;;;;;;;;;5076785;28;20024;-82
2022/11/10 01:30:48;;;;;;;2.22;1.45;;;;;;;;;;5078649;28;20029;-82
2022/11/10 01:33:16;;;;;;;5.78;2.42;;;;;;;;;;5080094;28;20070;-81
2022/11/10 01:35:42;;;;;;;4.43;2.70;;;;;;;;;;5079743;28;20051;-81
2022/11/10 01:38:08;;;;;;;3.83;1.90;;;;;;;;;;5073681;28;20382;-81
2022/11/10 01:40:34;;;;;;;5.85;2.35;;;;;;;;;;5075224;28;20021;-82
2022/11/10 01:43:00;;;;;;;4.18;2.17;;;;;;;;;;5074303;28;20029;-82
2022/11/10 01:45:26;;;;;;;5.70;2.72;;;;;;;;;;5080404;28;20044;-81
2022/11/10 01:47:58;;;;;;;4.55;1.50;;;8.50;99.90;;;;;;5081723;28;20108;-82
2022/11/10 01:50:27;;;;;;;5.13;2.97;;;;;;;;;;5077920;28;20036;-81
2022/11/10 01:52:56;;;;;;;8.30;3.00;;;8.40;99.90;;;;;;5078827;28;20960;-81
2022/11/10 01:55:23;;;;;;;7.07;3.80;;;;;;;;;;5076699;28;20678;-82
2022/11/10 01:57:49;;;;;;;5.90;2.92;;;;;;;;;;5078011;28;20125;-81
2022/11/10 02:00:16;;;;;;;6.45;3.13;;;;;;;;;;5081910;28;20036;-81
2022/11/10 02:02:46;;;;;;;14.30;6.63;;;;;;;;;;5075626;28;20033;-82
2022/11/10 02:05:12;;;;;;;19.85;6.20;;;;;;;;;;5081032;28;20028;-81
2022/11/10 02:07:38;;;;;;;26.02;6.32;;;;;;;;;;5080835;28;20025;-80
2022/11/10 02:10:05;;;;;;;20.83;6.78;;;;;;;;;;5074638;28;20028;-81
2022/11/10 02:12:37;;;;;;;13.52;5.15;;;;;;;;;;5073311;28;20041;-80
2022/11/10 02:15:04;;;;;;;10.52;4.28;;;;;;;;;;5080167;28;20032;-81
2022/11/10 02:17:30;;;;;;;10.80;2.95;;;;;;;;;;5072759;28;20112;-82
2022/11/10 02:20:03;;;;;;;12.75;3.55;;;;;;;;;;5076548;28;20168;-80
2022/11/10 02:22:29;;;;;;;8.52;3.05;;;;;;;;;;5076383;28;20037;-81
2022/11/10 02:24:55;;;;;;;16.73;5.40;;;;;;;;;;5073162;28;20043;-82
2022/11/10 02:27:21;;;;;;;28.83;6.95;;;;;;;;;;5082268;28;20024;-81
2022/11/10 02:29:47;;;;;;;14.35;7.28;;;;;;;;;;5079320;28;20537;-81
2022/11/10 02:32:13;;;;;;;22.10;6.95;;;;;;;;;;5075309;28;20036;-81
2022/11/10 02:34:39;;;;;;;17.55;6.22;;;;;;;;;;5079446;28;20044;-81
2022/11/10 02:37:05;;;;;;;16.48;5.97;;;;;;;;;;5069223;28;20035;-82
2022/11/10 02:39:31;;;;;;;12.88;4.70;;;;;;;;;;5077657;28;20080;-81
2022/11/10 02:41:57;;;;;;;23.48;4.38;;;;;;;;;;5072030;28;20044;-81
2022/11/10 02:44:23;;;;;;;13.32;3.15;;;;;;;;;;5075219;28;20024;-81
2022/11/10 02:46:48;;;;;;;7.45;3.13;;;;;;;;;;5080964;28;20029;-81
2022/11/10 02:49:14;;;;;;;12.07;4.53;;;;;;;;;;5083825;28;20028;-81
2022/11/10 02:51:40;;;;;;;14.43;4.68;;;;;;;;;;5073933;28;20035;-82
2022/11/10 02:54:06;;;;;;;17.83;4.25;;;;;;;;;;5072924;28;20021;-82
2022/11/10 02:56:34;;;;;;;7.20;3.58;;;;;;;;;;5072759;28;20032;-81
2022/11/10 02:59:00;;;;;;;6.00;3.00;;;;;;;;;;5076239;28;20120;-81
2022/11/10 03:01:26;;;;;;;14.02;5.10;;;;;;;;;;5072097;28;20036;-81
2022/11/10 03:03:52;;;;;;;8.57;5.63;;;;;;;;;;5078175;28;20032;-81
2022/11/10 03:06:18;;;;;;;6.80;3.58;;;;;;;;;;5075477;28;20044;-81
2022/11/10 03:08:44;;;;;;;8.50;3.72;;;;;;;;;;5076976;28;20020;-81
2022/11/10 03:11:10;;;;;;;9.18;4.38;;;;;;;;;;5064325;28;20121;-81
2022/11/10 03:13:36;;;;;;;7.55;4.22;;;;;;;;;;5071441;28;20017;-81
2022/11/10 03:16:01;;;;;;;8.80;4.75;;;7.10;99.90;;;;;;5073547;28;20037;-81
2022/11/10 03:18:27;;;;;;;12.68;3.35;;;;;;;;;;5082598;28;20028;-81
2022/11/10 03:20:53;;;;;;;8.82;3.50;;;;;;;;;;5073503;28;20042;-82
2022/11/10 03:23:19;;;;;;;12.48;5.68;;;;;;;;;;5065713;28;20029;-81
2022/11/10 03:25:46;;;;;;;10.07;4.95;;;;;;;;;;5075313;28;20027;-82
2022/11/10 03:28:12;;;;;;;5.68;3.13;;;;;;;;;;5073329;28;20020;-81
2022/11/10 03:30:38;;;;;;;9.73;4.30;;;;;;;;;;5075130;28;20028;-81
2022/11/10 03:33:04;;;;;;;15.05;4.70;;;;;;;;;;5070782;28;20036;-81
2022/11/10 03:35:30;;;;;;;8.00;4.32;;;;;;;;;;5073246;28;20182;-81
2022/11/10 03:37:56;;;;;;;10.60;4.95;;;;;;;;;;5075931;28;20040;-81
2022/11/10 03:40:22;;;;;;;8.90;4.22;;;;;;;;;;5073146;28;20059;-81
2022/11/10 03:42:48;;;;;;;11.35;5.75;;;;;;;;;;5075921;28;20088;-81
2022/11/10 03:45:15;;;;;;;11.23;5.53;;;;;;;;;;5069693;28;20049;-81
2022/11/10 03:47:44;;;;;;;5.63;3.80;;;;;;;;;;5078197;28;20084;-81
2022/11/10 03:50:10;;;;;;;6.28;3.58;;;;;;;;;;5076003;28;20052;-81
2022/11/10 03:52:39;;;;;;;5.50;3.25;;;6.90;99.90;;;;;;5070628;28;20031;-82
2022/11/10 03:55:05;;;;;;;4.68;2.80;;;;;;;;;;5072349;28;20043;-81
2022/11/10 03:57:31;;;;;;;3.88;2.15;;;;;;;;;;5076990;28;20419;-81
2022/11/10 03:59:57;;;;;;;4.65;2.20;;;;;;;;;;5077104;28;20021;-81
2022/11/10 04:02:23;;;;;;;7.32;2.50;;;;;;;;;;5074705;28;20084;-81
2022/11/10 04:10:18;;;;;;;11.10;2.75;;;;;;;;;;5073648;28;20036;-81
2022/11/10 04:15:41;;;;;;;6.82;3.55;;;;;;;;;;5078212;28;20052;-79
2022/11/10 04:18:25;;;;;;;5.63;2.38;;;;;;;;;;5070563;28;20021;-82
2022/11/10 04:20:53;;;;;;;4.20;2.35;;;;;;;;;;5068879;28;20533;-81
2022/11/10 04:23:35;;;;;;;6.07;3.70;;;;;;;;;;5072866;28;20085;-81
2022/11/10 04:28:53;;;;;;;5.43;2.65;;;;;;;;;;5077138;28;20060;-82
2022/11/10 04:31:20;;;;;;;7.40;2.50;;;;;;;;;;5073911;28;20032;-82
2022/11/10 04:33:46;;;;;;;2.78;2.03;;;;;;;;;;5058376;28;20504;-81
2022/11/10 04:36:13;;;;;;;4.70;2.03;;;;;;;;;;5073663;28;20604;-81
2022/11/10 04:38:39;;;;;;;3.67;2.33;;;;;;;;;;5052264;28;20816;-81
2022/11/10 04:41:05;;;;;;;5.18;2.13;;;;;;;;;;5073175;28;20016;-82
2022/11/10 04:43:32;;;;;;;3.67;2.03;;;;;;;;;;5073801;28;20381;-81
2022/11/10 04:45:58;;;;;;;4.68;2.33;;;;;;;;;;5070617;28;20212;-82
2022/11/10 04:48:24;;;;;;;6.10;3.13;;;;;;;;;;5079679;28;20059;-81
2022/11/10 04:50:50;;;;;;;3.60;2.45;;;;;;;;;;5077846;28;20036;-82
2022/11/10 04:53:16;;;;;;;4.60;2.38;;;;;;;;;;5072393;28;20032;-82
2022/11/10 04:55:43;;;;;;;3.80;2.53;;;;;;;;;;5071283;28;22632;-82
2022/11/10 04:58:09;;;;;;;6.65;2.60;;;;;;;;;;5074407;28;20025;-82
2022/11/10 05:00:35;;;;;;;6.07;3.15;;;;;;;;;;5059958;28;20036;-81
2022/11/10 05:03:02;;;;;;;5.78;3.30;;;;;;;;;;5074617;28;21641;-81
2022/11/10 05:05:28;;;;;;;4.47;2.47;;;;;;;;;;5077112;28;20028;-81
2022/11/10 05:07:54;;;;;;;4.75;2.25;;;;;;;;;;5082955;28;20043;-81
2022/11/10 05:10:20;;;;;;;4.57;3.15;;;;;;;;;;5080415;28;20058;-81
2022/11/10 05:12:46;;;;;;;5.32;2.72;;;;;;;;;;5069733;28;20024;-82
2022/11/10 05:15:12;;;;;;;6.00;3.20;;;;;;;;;;5079988;28;20056;-82
2022/11/10 05:17:38;;;;;;;6.50;3.55;;;;;;;;;;5082473;28;20032;-82
2022/11/10 05:20:05;;;;;;;8.88;4.45;;;;;;;;;;5083881;28;20379;-82
2022/11/10 05:22:31;;;;;;;9.52;5.22;;;;;;;;;;5075620;28;20036;-82
2022/11/10 05:24:57;;;;;;;12.10;6.57;;;;;;;;;;5079312;28;20021;-81
2022/11/10 05:27:23;;;;;;;11.25;5.93;;;;;;;;;;5074447;28;20028;-81
2022/11/10 05:29:49;;;;;;;9.23;5.25;;;;;;;;;;5074575;28;20028;-80
2022/11/10 05:32:15;;;;;;;18.85;7.35;;;;;;;;;;5077659;28;20079;-79
2022/11/10 05:34:40;;;;;;;23.65;10.57;;;;;;;;;;5092462;28;20025;-79
2022/11/10 05:37:06;;;;;;;18.73;8.52;;;;;;;;;;5080382;28;20028;-83
2022/11/10 05:39:32;;;;;;;25.48;8.77;;;;;;;;;;5075598;28;20047;-80
2022/11/10 05:41:58;;;;;;;12.43;5.90;;;;;;;;;;5071659;28;20087;-80
2022/11/10 05:44:25;;;;;;;13.35;5.07;;;;;;;;;;5062506;28;20025;-81
2022/11/10 05:46:50;;;;;;;11.82;4.90;;;;;;;;;;5060768;28;20073;-82
2022/11/10 05:49:16;;;;;;;8.77;4.70;;;;;;;;;;5063862;28;20032;-80
2022/11/10 05:51:42;;;;;;;12.65;5.03;;;;;;;;;;5065051;28;20029;-80
2022/11/10 05:54:08;;;;;;;8.15;4.97;;;;;;;;;;5073350;28;20094;-81
2022/11/10 05:56:34;;;;;;;14.13;5.82;;;;;;;;;;5075165;28;20598;-80
2022/11/10 05:59:00;;;;;;;14.45;6.38;;;;;;;;;;5073922;28;20161;-81
2022/11/10 06:01:26;;;;;;;14.20;6.78;;;;;;;;;;5074414;28;20040;-80
2022/11/10 06:03:52;;;;;;;11.35;6.60;;;;;;;;;;5076388;28;20024;-80
2022/11/10 06:06:18;;;;;;;13.45;6.18;;;;;;;;;;5080209;28;20021;-80
2022/11/10 06:08:44;;;;;;;16.40;6.32;;;8.40;99.90;;;;;;5073010;28;20047;-81
2022/11/10 06:11:10;;;;;;;16.88;6.10;;;;;;;;;;5071472;28;20029;-81
2022/11/10 06:13:35;;;;;;;9.15;4.65;;;8.70;99.90;;;;;;5065511;28;20025;-80
2022/11/10 06:16:01;;;;;;;10.80;6.35;;;;;;;;;;5070525;28;20032;-81
2022/11/10 06:18:27;;;;;;;15.23;5.65;;;8.50;99.90;;;;;;5067888;28;20680;-80
2022/11/10 06:20:53;;;;;;;7.43;4.38;;;;;;;;;;5075845;28;20032;-80
2022/11/10 06:23:18;;;;;;;9.50;4.57;;;;;;;;;;5075058;28;20028;-80
2022/11/10 06:25:44;;;;;;;10.13;4.95;;;;;;;;;;5073225;28;20397;-80
2022/11/10 06:28:10;;;;;;;8.38;5.03;;;;;;;;;;5077588;28;20467;-81
2022/11/10 06:30:37;;;;;;;11.10;4.70;;;8.50;99.90;;;;;;5078221;28;20032;-82
2022/11/10 06:33:03;;;;;;;14.55;6.55;;;;;;;;;;5075523;28;20020;-80
2022/11/10 06:35:29;;;;;;;10.15;4.95;;;9.70;99.90;;;;;;5074679;28;20021;-82
2022/11/10 06:38:03;;;;;;;13.88;6.22;;;9.00;99.90;;;;;;5081751;28;20052;-80
2022/11/10 06:40:29;;;;;;;14.73;6.32;;;;;;;;;;5078506;28;20063;-82
2022/11/10 06:42:55;;;;;;;15.00;4.15;;;;;;;;;;5075949;28;20024;-80
2022/11/10 06:45:22;;;;;;;9.15;4.32;;;;;;;;;;5077016;28;20509;-81
2022/11/10 06:47:48;;;;;;;7.43;4.28;;;;;;;;;;5071841;28;20048;-80
2022/11/10 06:50:14;;;;;;;11.25;4.05;;;;;;;;;;5076203;28;20039;-80
2022/11/10 06:52:40;;;;;;;9.88;4.95;;;;;;;;;;5072499;28;20025;-81
2022/11/10 06:55:06;;;;;;;9.07;4.88;;;;;;;;;;5073840;28;20040;-80
2022/11/10 06:57:38;;;;;;;14.02;5.40;;;9.40;99.90;;;;;;5070327;28;20539;-81
2022/11/10 07:00:05;;;;;;;11.68;4.20;;;9.10;99.90;;;;;;5075387;28;20020;-81
2022/11/10 07:02:31;;;;;;;12.10;6.13;;;;;;;;;;5071743;28;20028;-80
2022/11/10 07:04:57;;;;;;;14.45;5.20;;;;;;;;;;5074987;28;20792;-81
2022/11/10 07:07:23;;;;;;;9.68;4.82;;;;;;;;;;5077368;28;20088;-80
2022/11/10 07:09:49;;;;;;;10.05;5.32;;;;;;;;;;5071721;28;20036;-81
2022/11/10 07:12:16;;;;;;;11.18;5.65;;;;;;;;;;5066342;28;20694;-80
2022/11/10 07:14:42;;;;;;;15.65;5.70;;;;;;;;;;5073943;28;20020;-80
2022/11/10 07:17:08;;;;;;;10.95;5.78;;;;;;;;;;5076673;28;20042;-80
2022/11/10 07:19:34;;;;;;;17.40;5.22;;;;;;;;;;5067392;28;20055;-81
2022/11/10 07:22:00;;;;;;;16.30;5.32;;;;;;;;;;5071610;28;20052;-81
2022/11/10 07:24:29;;;;;;;13.68;5.13;;;10.30;99.90;;;;;;5075751;28;20032;-80
2022/11/10 07:26:55;;;;;;;11.13;5.55;;;;;;;;;;5071727;28;20040;-81
2022/11/10 07:29:21;;;;;;;13.00;5.25;;;;;;;;;;5069956;28;20054;-81
2022/11/10 07:31:47;;;;;;;9.25;4.57;;;;;;;;;;5071404;28;20028;-79
2022/11/10 07:34:13;;;;;;;8.73;3.85;;;;;;;;;;5069489;28;20591;-78
2022/11/10 07:36:39;;;;;;;14.82;5.28;;;;;;;;;;5065506;28;20097;-78
2022/11/10 07:39:05;;;;;;;10.43;5.10;;;;;;;;;;5067936;28;20025;-81
2022/11/10 07:41:31;;;;;;;10.40;5.40;;;10.10;99.90;;;;;;5072047;28;20039;-80
2022/11/10 07:43:57;;;;;;;12.15;4.97;;;;;;;;;;5071978;28;20025;-81
2022/11/10 07:46:23;;;;;;;10.57;5.10;;;10.60;99.90;;;;;;5080997;28;20481;-81
2022/11/10 07:48:49;;;;;;;9.63;5.57;;;;;;;;;;5072788;28;20036;-80
2022/11/10 07:51:15;;;;;;;12.38;5.43;;;;;;;;;;5071489;28;20078;-81
2022/11/10 07:53:41;;;;;;;11.60;5.63;;;;;;;;;;5080994;28;20012;-80
2022/11/10 07:56:07;;;;;;;12.88;5.57;;;10.50;99.90;;;;;;5077008;28;20036;-80
2022/11/10 07:58:34;;;;;;;10.35;4.00;;;;;;;;;;5077909;28;20107;-81
2022/11/10 08:01:00;;;;;;;10.95;4.25;;;;;;;;;;5087038;28;20060;-81
2022/11/10 08:03:26;;;;;;;16.15;4.50;;;;;;;;;;5078259;28;20464;-83
2022/11/10 08:05:52;;;;;;;13.63;4.57;;;;;;;;;;5073321;28;20036;-82
2022/11/10 08:08:18;;;;;;;9.35;4.40;;;;;;;;;;5072747;28;20028;-83
2022/11/10 08:10:43;;;;;;;10.65;3.95;;;10.80;99.90;;;;;;5073381;28;20028;-82
2022/11/10 08:13:11;;;;;;;9.48;4.43;;;;;;;;;;5075382;28;20570;-83
2022/11/10 08:15:37;;;;;;;4.97;2.88;;;;;;;;;;5071073;28;20036;-83
2022/11/10 08:18:13;;;;;;;13.68;3.83;;;;;;;;;;5065771;28;20021;-83
2022/11/10 08:20:40;;;;;;;7.45;3.97;;;;;;;;;;5070860;28;20039;-82
2022/11/10 08:23:06;;;;;;;6.18;3.55;;;;;;;;;;5074411;28;20039;-82
2022/11/10 08:25:35;;;;;;;5.78;3.65;;;10.70;99.90;;;;;;5078433;28;20028;-82
2022/11/10 08:28:07;;;;;;;7.40;4.10;;;10.80;99.90;;;;;;5079958;28;20501;-82
2022/11/10 08:30:34;;;;;;;11.00;3.75;;;10.70;99.90;;;;;;5074296;28;20036;-82
2022/11/10 08:33:00;;;;;;;6.00;3.00;;;11.00;99.90;;;;;;5076761;28;20050;-83
2022/11/10 08:35:28;;;;;;;9.38;3.60;;;11.10;99.90;;;;;;5070833;28;20036;-81
2022/11/10 08:37:54;;;;;;;4.35;2.80;;;11.60;99.90;;;;;;5079845;28;20025;-82
2022/11/10 08:40:21;;;;;;;4.90;2.33;;;11.10;99.90;;;;;;5076104;28;20063;-82
2022/11/10 08:42:47;;;;;;;5.72;2.70;;;;;;;;;;5075936;28;20017;-82
2022/11/10 08:45:13;;;;;;;6.93;2.17;;;11.00;99.90;;;;;;5081231;28;20039;-82
2022/11/10 08:47:39;;;;;;;6.95;2.50;;;;;;;;;;5076760;28;20487;-83
2022/11/10 08:50:06;;;;;;;5.70;1.90;;;11.20;99.90;;;;;;5073171;28;20031;-82
2022/11/10 08:52:32;;;;;;;10.77;2.45;;;;;;;;;;5073372;28;20432;-82
2022/11/10 08:54:58;;;;;;;5.55;2.60;;;;;;;;;;5079412;28;20040;-82
2022/11/10 08:57:24;;;;;;;6.32;2.42;;;;;;;;;;5079025;28;20028;-82
2022/11/10 08:59:50;;;;;;;4.82;1.92;;;11.90;99.90;;;;;;5079943;28;20101;-82
2022/11/10 09:02:16;;;;;;;3.55;2.03;;;;;;;;;;5078956;28;20033;-82
2022/11/10 09:04:42;;;;;;;4.93;2.50;;;;;;;;;;5079045;28;20033;-83
2022/11/10 09:07:08;;;;;;;6.60;2.92;;;;;;;;;;5074252;28;20503;-81
2022/11/10 09:09:34;;;;;;;7.22;2.72;;;;;;;;;;5069555;28;20032;-81
2022/11/10 09:12:00;;;;;;;6.20;2.67;;;;;;;;;;5075644;28;20043;-82
2022/11/10 09:14:26;;;;;;;3.22;1.88;;;;;;;;;;5077953;28;20041;-82
2022/11/10 09:16:52;;;;;;;6.72;3.63;;;;;;;;;;5078758;28;20122;-82
2022/11/10 09:19:17;;;;;;;8.77;2.88;;;12.00;99.90;;;;;;5078424;28;20025;-82
2022/11/10 09:21:43;;;;;;;8.65;3.45;;;11.70;99.90;;;;;;5075620;28;20065;-83
2022/11/10 09:24:09;;;;;;;7.75;3.47;;;;;;;;;;5077230;28;20031;-82
2022/11/10 09:26:35;;;;;;;6.25;2.75;;;;;;;;;;5076426;28;20029;-83
2022/11/10 09:29:01;;;;;;;2.10;1.27;;;;;;;;;;5075083;28;20525;-82
2022/11/10 09:31:27;;;;;;;5.55;2.35;;;;;;;;;;5081267;28;20052;-82
2022/11/10 09:33:52;;;;;;;2.17;1.48;;;;;;;;;;5075501;28;20032;-83
2022/11/10 09:36:18;;;;;;;8.02;2.55;;;;;;;;;;5081971;28;20079;-83
2022/11/10 09:38:44;;;;;;;1.48;0.95;;;;;;;;;;5077912;28;20029;-82
2022/11/10 09:41:13;;;;;;;6.78;1.77;;;13.30;99.90;;;;;;5074060;28;20036;-83
2022/11/10 09:43:52;;;;;;;3.35;1.10;;;12.90;99.90;;;;;;5080856;28;20031;-82
2022/11/10 09:46:25;;;;;;;9.18;1.08;;;12.60;99.90;;;;;;5080075;28;20025;-82
2022/11/10 09:48:53;;;;;;;5.03;1.83;;;;;;;;;;5075297;28;20047;-82
2022/11/10 09:51:30;;;;;;;5.03;2.15;;;12.30;99.90;;;;;;5076164;28;20513;-83
2022/11/10 09:54:09;;;;;;;8.15;1.90;;;12.00;99.90;;;;;;5080411;28;20020;-82
2022/11/10 09:56:35;;;;;;;2.53;1.63;;;;;;;;;;5076129;28;20071;-83
2022/11/10 09:59:18;;;;;;;5.90;1.55;;;12.10;99.90;;;;;;5082710;28;20028;-83
2022/11/10 10:01:54;;;;;;;5.43;2.03;;;12.80;99.90;;;;;;5077776;28;20028;-83
2022/11/10 10:04:32;;;;;;;3.72;1.73;;;12.10;99.90;;;;;;5077316;28;20506;-83
2022/11/10 10:07:09;;;;;;;3.80;1.63;;;12.20;99.90;;;;;;5082443;28;20032;-83
2022/11/10 10:09:54;;;;;;;5.70;1.38;;;;;;;;;;5074164;28;20036;-83
2022/11/10 10:12:29;;;;;;;3.45;1.50;;;;;;;;;;5071915;28;20037;-83
2022/11/10 10:15:13;;;;;;;8.55;1.85;;;12.70;99.90;;;;;;5077856;28;20446;-84
2022/11/10 10:17:39;;;;;;;7.63;2.28;;;;;;;;;;5079935;28;20033;-83
2022/11/10 10:20:16;;;;;;;9.20;2.88;;;13.10;99.90;;;;;;5079106;28;20088;-82
2022/11/10 10:22:58;;;;;;;6.70;1.90;;;13.10;99.90;;;;;;5079902;28;20024;-82
2022/11/10 10:25:26;;;;;;;5.03;2.08;;;13.10;99.90;;;;;;5070924;28;20025;-84
2022/11/10 10:28:21;;;;;;;5.60;1.60;;;13.20;99.90;;;;;;5074512;28;20036;-82
2022/11/10 10:30:47;;;;;;;6.70;2.00;;;;;;;;;;5083289;28;20040;-83
2022/11/10 10:33:15;;;;;;;4.43;2.13;;;13.20;99.90;;;;;;5074223;28;20051;-83
2022/11/10 10:35:42;;;;;;;4.38;1.63;;;;;;;;;;5080296;28;20044;-83
2022/11/10 10:38:37;;;;;;;5.40;2.03;;;13.50;99.90;;;;;;5081744;28;20056;-83
2022/11/10 10:41:31;;;;;;;4.80;2.20;;;13.60;99.90;;;;;;5073494;28;20047;-83
2022/11/10 10:43:59;;;;;;;5.55;2.38;;;13.50;99.90;;;;;;5090183;28;20032;-83
2022/11/10 10:46:27;;;;;;;6.25;3.00;;;14.60;99.90;;;;;;5085901;28;20088;-83
2022/11/10 10:49:15;;;;;;;5.05;1.38;;;13.90;99.90;;;;;;5077830;28;20039;-82
2022/11/10 10:51:41;;;;;;;6.68;2.15;;;12.90;99.90;;;;;;5076833;28;20048;-82
2022/11/10 10:54:25;;;;;;;5.05;1.30;;;12.80;99.90;;;;;;5073838;28;20050;-84
2022/11/10 10:57:29;;;;;;;6.30;1.52;;;12.30;99.90;;;;;;5080115;28;21008;-80
2022/11/10 11:00:13;;;;;;;;;;;12.00;99.90;;;;;;5043123;28;20528;-80
2022/11/10 11:02:39;;;;;;;1.55;1.13;;;13.20;99.90;;;;;;5069995;28;19936;-83
2022/11/10 11:05:10;;;;;;;4.35;1.05;;;12.30;99.90;;;;;;5076591;28;20029;-83
2022/11/10 11:07:36;;;;;;;5.13;1.60;;;12.50;99.90;;;;;;5079786;28;20020;-81
2022/11/10 11:10:02;;;;;;;3.58;1.45;;;;;;;;;;5071623;28;20442;-83
2022/11/10 11:12:30;;;;;;;3.65;1.10;;;13.20;99.90;;;;;;5078029;28;20063;-83
2022/11/10 11:15:21;;;;;;;2.58;1.80;;;12.50;99.90;;;;;;5077058;28;20059;-82
2022/11/10 11:18:09;;;;;;;3.72;1.35;;;12.70;99.90;;;;;;5074244;28;20592;-83
2022/11/10 11:20:51;;;;;;;6.05;1.58;;;13.40;99.90;;;;;;5076358;28;20035;-83
2022/11/10 11:23:41;;;;;;;5.90;1.20;;;13.70;99.90;;;;;;5074442;28;20025;-83
2022/11/10 11:26:15;;;;;;;6.65;2.22;;;13.70;99.90;;;;;;5079167;28;20292;-83
2022/11/10 11:28:58;;;;;;;3.78;1.77;;;14.10;99.90;;;;;;5076508;28;20080;-82
2022/11/10 11:31:27;;;;;;;8.45;1.98;;;14.00;99.90;;;;;;5076818;28;20032;-84
2022/11/10 11:33:53;;;;;;;9.75;1.27;;;;;;;;;;5068103;28;20133;-84
2022/11/10 11:36:57;;;;;;;2.53;1.13;;;13.90;99.90;;;;;;5073260;28;20667;-84
2022/11/10 11:39:56;;;;;;;3.33;1.85;;;13.20;99.90;;;;;;5067920;28;20040;-84
2022/11/10 11:42:31;;;;;;;6.63;1.65;;;14.20;99.90;;;;;;5073865;28;20643;-83
2022/11/10 11:45:24;;;;;;;5.35;1.50;;;13.90;99.90;;;;;;5072969;28;20094;-83
2022/11/10 11:48:25;;;;;;;2.20;0.73;;;13.80;99.90;;;;;;5074588;28;20036;-83
2022/11/10 11:50:56;;;;;;;8.80;2.17;;;14.00;99.90;;;;;;5071103;28;20028;-81
2022/11/10 11:53:40;;;;;;;1.55;0.63;;;13.60;99.90;;;;;;5072682;28;20032;-84
2022/11/10 11:56:12;;;;;;;1.27;0.93;;;13.00;99.90;;;;;;5063284;28;20040;-83
2022/11/10 11:58:38;;;;;;;0.73;0.40;;;;;;;;;;5075092;28;20029;-84
2022/11/10 12:01:42;;;;;;;3.60;1.00;;;13.40;99.90;;;;;;5076979;28;20044;-84
2022/11/10 12:04:36;;;;;;;2.30;1.00;;;13.40;99.90;;;;;;5073998;28;20685;-83
2022/11/10 12:07:43;;;;;;;4.97;0.80;;;13.90;99.90;;;;;;5075038;28;20393;-85
2022/11/10 12:10:31;;;;;;;2.05;0.60;;;13.80;99.90;;;;;;5079609;28;20037;-84
2022/11/10 12:13:29;;;;;;;2.88;1.02;;;13.60;99.90;;;;;;5083573;28;20607;-83
2022/11/10 12:15:58;;;;;;;4.85;0.80;;;13.40;99.90;;;;;;5038093;28;20078;-83
2022/11/10 12:18:35;;;;;;;7.47;1.05;;;12.40;99.90;;;;;;5080529;28;20056;-83
2022/11/10 12:21:09;;;;;;;4.28;1.13;;;13.70;99.90;;;;;;5077752;28;20040;-84
2022/11/10 12:24:03;;;;;;;4.90;1.30;;;12.80;99.90;;;;;;5076749;28;20155;-84
2022/11/10 12:26:28;;;;;;;;;;;12.20;99.90;;;;;;5082692;28;20588;-83
2022/11/10 12:29:18;;;;;;;3.13;1.15;;;13.30;99.90;;;;;;5082370;28;19919;-83
2022/11/10 12:31:45;;;;;;;8.38;1.05;;;12.20;99.90;;;;;;5082826;28;20032;-84
2022/11/10 12:34:35;;;;;;;4.40;1.23;;;13.30;99.90;;;;;;5082344;28;20033;-84
2022/11/10 12:37:02;;;;;;;2.17;0.63;;;;;;;;;;5082770;28;20055;-84
2022/11/10 12:39:42;;;;;;;3.63;0.88;;;13.40;99.90;;;;;;5080427;28;20043;-84
2022/11/10 12:42:14;;;;;;;4.10;0.82;;;13.60;99.90;;;;;;5075959;28;20029;-84
2022/11/10 12:45:02;;;;;;;5.70;0.88;;;12.90;99.90;;;;;;5081201;28;20730;-83
2022/11/10 12:47:41;;;;;;;3.90;1.17;;;13.60;99.90;;;;;;5078226;28;20025;-83
2022/11/10 12:50:25;;;;;;;2.53;0.90;;;14.00;99.90;;;;;;5081679;28;20287;-84
2022/11/10 12:52:58;;;;;;;4.38;0.63;;;13.80;99.90;;;;;;5082228;28;20029;-84
2022/11/10 12:55:46;;;;;;;1.83;0.82;;;14.10;99.90;;;;;;5084300;28;20074;-83
2022/11/10 12:58:13;;;;;;;9.48;0.88;;;14.20;99.90;;;;;;5077627;28;20394;-83
2022/11/10 13:01:04;;;;;;;4.47;0.65;;;14.50;99.90;;;;;;5078362;28;20029;-84
2022/11/10 13:03:33;;;;;;;1.35;0.52;;;14.10;99.90;;;;;;5073135;28;20037;-85
2022/11/10 13:06:06;;;;;;;3.83;0.55;;;;;;;;;;5083906;28;20200;-84
2022/11/10 13:08:40;;;;;;;4.05;1.45;;;14.50;99.90;;;;;;5078198;28;20043;-84
2022/11/10 13:11:35;;;;;;;3.22;0.95;;;14.20;99.90;;;;;;5067308;28;20032;-84
2022/11/10 13:14:03;;;;;;;1.02;0.40;;;14.00;99.90;;;;;;5070149;28;20143;-85
2022/11/10 13:16:41;;;;;;;1.20;0.50;;;14.40;99.90;;;;;;5077637;28;20041;-84
2022/11/10 13:19:08;;;;;;;5.22;0.90;;;13.80;99.90;;;;;;5078591;28;20021;-85
2022/11/10 13:21:59;;;;;;;3.28;0.68;;;13.40;99.90;;;;;;5077550;28;20051;-84
2022/11/10 13:24:29;;;;;;;1.05;0.68;;;14.00;99.90;;;;;;5073096;28;20036;-84
2022/11/10 13:27:03;;;;;;;1.13;0.80;;;13.20;99.90;;;;;;5075195;28;20025;-85
2022/11/10 13:29:47;;;;;;;0.90;0.40;;;13.00;99.90;;;;;;5072474;28;20017;-84
2022/11/10 13:32:12;;;;;;;1.42;0.47;;;13.80;99.90;;;;;;5077594;28;20090;-84
2022/11/10 13:34:42;;;;;;;4.85;0.77;;;13.40;99.90;;;;;;5076213;28;20028;-84
2022/11/10 13:37:33;;;;;;;3.63;0.50;;;12.90;99.90;;;;;;5075193;28;20074;-83
2022/11/10 13:40:23;;;;;;;3.58;0.52;;;12.70;99.90;;;;;;5074384;28;20525;-84
2022/11/10 13:42:58;;;;;;;1.10;0.52;;;12.40;99.90;;;;;;5063066;28;20033;-84
2022/11/10 13:45:40;;;;;;;5.07;0.68;;;13.10;99.90;;;;;;5069952;28;20028;-85
2022/11/10 13:48:29;;;;;;;2.35;0.60;;;13.10;99.90;;;;;;5064611;28;20468;-84
2022/11/10 13:51:23;;;;;;;9.85;1.10;;;13.30;99.90;;;;;;5074400;28;20354;-84
2022/11/10 13:54:16;;;;;;;2.47;1.02;;;12.50;99.90;;;;;;5072799;28;20086;-83
2022/11/10 13:57:19;;;;;;;6.22;0.60;;;12.30;99.90;;;;;;5075337;28;20028;-83
2022/11/10 13:59:56;;;;;;;2.33;0.45;;;13.10;99.90;;;;;;5081050;28;20623;-84
2022/11/10 14:02:37;;;;;;;11.93;0.50;;;11.90;99.90;;;;;;5078249;28;20039;-84
2022/11/10 14:05:05;;;;;;;3.42;1.05;;;13.00;99.90;;;;;;5080284;28;20024;-84
2022/11/10 14:07:40;;;;;;;2.15;0.68;;;13.10;99.90;;;;;;5075206;28;20029;-84
2022/11/10 14:10:34;;;;;;;3.20;0.70;;;12.10;99.90;;;;;;5072317;28;20444;-84
2022/11/10 14:13:22;;;;;;;3.17;1.00;;;11.80;99.90;;;;;;5075222;28;20055;-84
2022/11/10 14:15:49;;;;;;;9.40;2.15;;;12.40;99.90;;;;;;5074755;28;20041;-84
2022/11/10 14:18:23;;;;;;;2.83;1.05;;;11.90;99.90;;;;;;5073831;28;20035;-85
2022/11/10 14:20:55;;;;;;;3.17;0.88;;;12.80;99.90;;;;;;5071077;28;20036;-83
2022/11/10 14:23:44;;;;;;;4.50;1.55;;;12.10;99.90;;;;;;5073745;28;20027;-84
2022/11/10 14:26:37;;;;;;;2.47;0.60;;;;;;;;;;5073014;28;20035;-84